createdAt,value
2022-09-03T00:00:18.372Z,100.00
2022-09-03T00:02:55.244Z,100.00
2022-09-03T00:05:36.750Z,100.00
2022-09-03T00:08:13.535Z,100.00
2022-09-03T00:10:52.997Z,100.00
2022-09-03T00:13:30.287Z,100.00
2022-09-03T00:16:01.128Z,100.00
2022-09-03T00:18:36.299Z,100.00
2022-09-03T00:21:11.189Z,100.00
2022-09-03T00:23:45.741Z,100.00
2022-09-03T00:26:29.499Z,100.00
2022-09-03T00:29:08.036Z,100.00
2022-09-03T00:31:43.090Z,100.00
2022-09-03T00:34:23.219Z,100.00
2022-09-03T00:36:52.320Z,100.00
2022-09-03T00:39:23.653Z,100.00
2022-09-03T00:42:20.406Z,100.00
2022-09-03T00:45:23.225Z,100.00
2022-09-03T00:48:12.759Z,100.00
2022-09-03T00:51:10.242Z,100.00
2022-09-03T00:53:51.698Z,100.00
2022-09-03T00:56:39.668Z,100.00
2022-09-03T00:59:32.313Z,100.00
2022-09-03T01:06:01.688Z,100.00
2022-09-03T01:09:00.190Z,100.00
2022-09-03T01:11:47.400Z,100.00
2022-09-03T01:14:35.066Z,100.00
2022-09-03T01:17:14.680Z,100.00
2022-09-03T01:20:09.944Z,100.00
2022-09-03T01:23:21.376Z,100.00
2022-09-03T01:26:07.452Z,100.00
2022-09-03T01:28:54.933Z,100.00
2022-09-03T01:31:36.311Z,100.00
2022-09-03T01:34:19.373Z,100.00
2022-09-03T01:37:10.010Z,100.00
2022-09-03T01:39:55.135Z,100.00
2022-09-03T01:42:42.441Z,100.00
2022-09-03T01:45:51.233Z,100.00
2022-09-03T01:48:46.435Z,100.00
2022-09-03T01:51:25.195Z,100.00
2022-09-03T01:54:38.319Z,100.00
2022-09-03T01:57:35.762Z,100.00
2022-09-03T02:00:13.339Z,100.00
2022-09-03T02:02:47.956Z,100.00
2022-09-03T02:05:24.788Z,100.00
2022-09-03T02:08:01.831Z,100.00
2022-09-03T02:10:35.550Z,100.00
2022-09-03T02:13:11.450Z,100.00
2022-09-03T02:15:47.013Z,100.00
2022-09-03T02:18:21.816Z,100.00
2022-09-03T02:20:53.893Z,100.00
2022-09-03T02:23:24.600Z,100.00
2022-09-03T02:25:59.766Z,100.00
2022-09-03T02:28:30.474Z,100.00
2022-09-03T02:30:59.481Z,100.00
2022-09-03T02:33:31.455Z,100.00
2022-09-03T02:35:59.942Z,100.00
2022-09-03T02:38:28.739Z,100.00
2022-09-03T02:40:57.343Z,100.00
2022-09-03T02:43:36.289Z,100.00
2022-09-03T02:46:11.279Z,100.00
2022-09-03T02:48:41.267Z,100.00
2022-09-03T02:51:14.225Z,100.00
2022-09-03T02:53:44.455Z,100.00
2022-09-03T02:56:14.261Z,100.00
2022-09-03T02:58:42.767Z,100.00
2022-09-03T03:01:11.860Z,100.00
2022-09-03T03:05:37.461Z,100.00
2022-09-03T03:08:06.033Z,100.00
2022-09-03T03:10:35.334Z,100.00
2022-09-03T03:13:03.938Z,100.00
2022-09-03T03:15:32.491Z,100.00
2022-09-03T03:18:01.100Z,100.00
2022-09-03T03:20:31.146Z,100.00
2022-09-03T03:22:59.713Z,100.00
2022-09-03T03:25:28.538Z,100.00
2022-09-03T03:27:57.914Z,100.00
2022-09-03T03:30:26.459Z,100.00
2022-09-03T03:32:55.876Z,100.00
2022-09-03T03:35:25.320Z,100.00
2022-09-03T03:37:55.324Z,100.00
2022-09-03T03:40:24.006Z,100.00
2022-09-03T03:42:53.692Z,100.00
2022-09-03T03:45:22.870Z,100.00
2022-09-03T03:47:51.470Z,100.00
2022-09-03T03:50:21.023Z,100.00
2022-09-03T03:52:49.567Z,100.00
2022-09-03T03:55:19.607Z,100.00
2022-09-03T03:57:48.721Z,100.00
2022-09-03T04:00:18.583Z,100.00
2022-09-03T04:02:47.552Z,100.00
2022-09-03T04:05:16.531Z,100.00
2022-09-03T04:07:47.704Z,100.00
2022-09-03T04:10:16.708Z,100.00
2022-09-03T04:12:46.617Z,100.00
2022-09-03T04:15:15.132Z,100.00
2022-09-03T04:17:44.327Z,100.00
2022-09-03T04:20:12.842Z,100.00
2022-09-03T04:22:41.364Z,100.00
2022-09-03T04:25:10.864Z,100.00
2022-09-03T04:27:39.619Z,100.00
2022-09-03T04:30:11.543Z,100.00
2022-09-03T04:32:56.315Z,100.00
2022-09-03T04:35:33.885Z,100.00
2022-09-03T04:38:05.804Z,99.91
2022-09-03T04:40:34.734Z,99.44
2022-09-03T04:43:03.268Z,99.00
2022-09-03T04:45:33.240Z,98.48
2022-09-03T04:48:03.729Z,98.16
2022-09-03T04:50:35.704Z,98.00
2022-09-03T04:53:08.205Z,98.03
2022-09-03T04:55:37.898Z,98.11
2022-09-03T04:58:07.857Z,98.05
2022-09-03T05:00:38.608Z,98.00
2022-09-03T05:05:21.475Z,98.04
2022-09-03T05:07:52.843Z,98.06
2022-09-03T05:10:21.564Z,97.84
2022-09-03T05:13:00.087Z,97.42
2022-09-03T05:15:28.779Z,96.90
2022-09-03T05:18:02.076Z,96.46
2022-09-03T05:20:33.328Z,95.85
2022-09-03T05:23:05.143Z,95.52
2022-09-03T05:25:33.704Z,94.87
2022-09-03T05:28:03.038Z,94.47
2022-09-03T05:30:31.954Z,93.74
2022-09-03T05:33:00.595Z,93.14
2022-09-03T05:35:30.293Z,92.47
2022-09-03T05:38:00.944Z,91.64
2022-09-03T05:40:29.583Z,90.82
2022-09-03T05:43:00.064Z,90.01
2022-09-03T05:45:29.270Z,89.65
2022-09-03T05:48:01.403Z,89.33
2022-09-03T05:50:29.919Z,88.31
2022-09-03T05:53:00.762Z,87.42
2022-09-03T05:55:29.910Z,86.71
2022-09-03T05:57:59.516Z,86.45
2022-09-03T06:00:28.683Z,85.28
2022-09-03T06:02:58.323Z,84.60
2022-09-03T06:05:26.988Z,84.13
2022-09-03T06:07:55.559Z,84.29
2022-09-03T06:10:28.049Z,84.41
2022-09-03T06:13:03.852Z,84.86
2022-09-03T06:15:32.972Z,85.01
2022-09-03T06:18:01.423Z,85.14
2022-09-03T06:20:30.527Z,84.64
2022-09-03T06:23:00.439Z,84.01
2022-09-03T06:25:30.340Z,83.29
2022-09-03T06:27:59.223Z,82.42
2022-09-03T06:30:27.946Z,81.54
2022-09-03T06:32:56.407Z,80.42
2022-09-03T06:35:24.907Z,79.86
2022-09-03T06:37:54.753Z,78.12
2022-09-03T06:40:26.186Z,75.72
2022-09-03T06:43:00.964Z,73.92
2022-09-03T06:45:29.987Z,73.36
2022-09-03T06:47:58.583Z,73.58
2022-09-03T06:50:28.607Z,74.07
2022-09-03T06:52:59.968Z,73.34
2022-09-03T06:55:28.703Z,71.77
2022-09-03T06:57:58.769Z,68.98
2022-09-03T07:00:28.227Z,65.82
2022-09-03T07:05:21.542Z,58.80
2022-09-03T07:07:51.891Z,55.88
2022-09-03T07:10:21.962Z,54.17
2022-09-03T07:12:50.518Z,53.05
2022-09-03T07:15:20.068Z,51.07
2022-09-03T07:17:49.284Z,49.69
2022-09-03T07:20:18.227Z,48.54
2022-09-03T07:22:48.060Z,48.06
2022-09-03T07:25:16.637Z,46.95
2022-09-03T07:27:45.633Z,46.28
2022-09-03T07:30:14.854Z,45.34
2022-09-03T07:32:43.405Z,45.72
2022-09-03T07:35:11.853Z,47.26
2022-09-03T07:37:43.780Z,46.79
2022-09-03T07:40:14.156Z,47.07
2022-09-03T07:42:42.618Z,47.96
2022-09-03T07:45:12.615Z,47.35
2022-09-03T07:47:49.654Z,46.66
2022-09-03T07:50:18.321Z,44.72
2022-09-03T07:52:47.729Z,43.74
2022-09-03T07:55:18.127Z,43.17
2022-09-03T07:57:46.898Z,42.97
2022-09-03T08:00:20.104Z,42.39
2022-09-03T08:02:48.719Z,42.22
2022-09-03T08:05:19.359Z,40.69
2022-09-03T08:07:48.490Z,39.66
2022-09-03T08:10:18.588Z,39.29
2022-09-03T08:12:47.099Z,39.72
2022-09-03T08:15:19.332Z,39.62
2022-09-03T08:17:47.856Z,39.35
2022-09-03T08:20:18.091Z,39.51
2022-09-03T08:22:46.648Z,38.68
2022-09-03T08:25:15.309Z,39.26
2022-09-03T08:27:45.183Z,39.21
2022-09-03T08:30:13.953Z,37.96
2022-09-03T08:32:42.489Z,38.86
2022-09-03T08:35:11.488Z,39.47
2022-09-03T08:37:39.964Z,39.29
2022-09-03T08:40:10.027Z,38.62
2022-09-03T08:43:08.523Z,37.94
2022-09-03T08:45:39.473Z,38.07
2022-09-03T08:48:14.495Z,38.20
2022-09-03T08:50:49.478Z,38.85
2022-09-03T08:53:24.578Z,39.19
2022-09-03T08:56:02.106Z,38.22
2022-09-03T08:58:38.393Z,37.89
2022-09-03T09:01:19.325Z,37.48
2022-09-03T09:05:42.701Z,36.39
2022-09-03T09:08:26.752Z,36.52
2022-09-03T09:11:08.382Z,36.30
2022-09-03T09:13:53.148Z,35.84
2022-09-03T09:16:34.196Z,34.87
2022-09-03T09:19:26.486Z,34.89
2022-09-03T09:22:03.931Z,35.69
2022-09-03T09:24:43.038Z,36.66
2022-09-03T09:27:17.233Z,36.99
2022-09-03T09:29:52.493Z,36.19
2022-09-03T09:32:21.974Z,35.36
2022-09-03T09:34:52.498Z,36.54
2022-09-03T09:37:23.534Z,37.99
2022-09-03T09:40:00.908Z,38.24
2022-09-03T09:42:31.154Z,38.07
2022-09-03T09:45:10.650Z,39.22
2022-09-03T09:47:41.706Z,38.66
2022-09-03T09:50:23.712Z,36.79
2022-09-03T09:53:08.851Z,36.87
2022-09-03T09:55:49.655Z,37.51
2022-09-03T09:58:31.079Z,37.34
2022-09-03T10:01:04.894Z,37.26
2022-09-03T10:03:36.831Z,37.97
2022-09-03T10:06:28.392Z,37.47
2022-09-03T10:09:11.952Z,36.69
2022-09-03T10:11:46.529Z,35.93
2022-09-03T10:14:24.510Z,38.82
2022-09-03T10:17:06.276Z,39.04
2022-09-03T10:20:07.689Z,38.27
2022-09-03T10:22:56.562Z,38.09
2022-09-03T10:25:40.389Z,36.18
2022-09-03T10:28:13.230Z,36.41
2022-09-03T10:31:24.389Z,36.07
2022-09-03T10:33:59.525Z,35.96
2022-09-03T10:36:38.678Z,36.68
2022-09-03T10:39:16.994Z,36.71
2022-09-03T10:42:06.862Z,36.83
2022-09-03T10:45:01.862Z,39.15
2022-09-03T10:48:08.684Z,40.00
2022-09-03T10:50:50.195Z,39.22
2022-09-03T10:53:53.721Z,39.48
2022-09-03T10:56:34.090Z,40.72
2022-09-03T10:59:33.716Z,40.91
2022-09-03T11:05:31.062Z,40.84
2022-09-03T11:08:08.328Z,41.30
2022-09-03T11:10:45.525Z,40.82
2022-09-03T11:13:20.564Z,40.37
2022-09-03T11:15:55.151Z,40.70
2022-09-03T11:18:30.792Z,40.81
2022-09-03T11:21:11.465Z,40.09
2022-09-03T11:23:46.736Z,40.28
2022-09-03T11:26:20.682Z,40.48
2022-09-03T11:28:59.372Z,40.68
2022-09-03T11:31:48.240Z,39.33
2022-09-03T11:34:32.048Z,38.99
2022-09-03T11:37:19.636Z,40.22
2022-09-03T11:40:00.981Z,38.80
2022-09-03T11:42:36.987Z,38.04
2022-09-03T11:45:37.690Z,38.61
2022-09-03T11:48:30.226Z,36.68
2022-09-03T11:50:59.119Z,35.23
2022-09-03T11:53:37.370Z,35.29
2022-09-03T11:56:20.612Z,35.69
2022-09-03T11:59:02.439Z,36.14
2022-09-03T12:01:33.312Z,35.68
2022-09-03T12:04:06.508Z,36.51
2022-09-03T12:07:20.837Z,37.13
2022-09-03T12:10:12.337Z,38.68
2022-09-03T12:12:55.139Z,38.75
2022-09-03T12:15:57.438Z,37.51
2022-09-03T12:18:31.462Z,37.17
2022-09-03T12:21:06.521Z,37.49
2022-09-03T12:23:42.296Z,37.15
2022-09-03T12:26:16.082Z,38.25
2022-09-03T12:28:47.666Z,38.53
2022-09-03T12:31:23.000Z,38.39
2022-09-03T12:33:55.038Z,38.32
2022-09-03T12:36:25.115Z,37.86
2022-09-03T12:39:11.586Z,37.98
2022-09-03T12:42:02.426Z,38.01
2022-09-03T12:44:33.781Z,37.31
2022-09-03T12:49:59.884Z,38.12
2022-09-03T12:52:35.513Z,38.45
2022-09-03T12:55:09.995Z,39.34
2022-09-03T12:57:45.787Z,39.20
2022-09-03T13:00:19.959Z,38.82
2022-09-03T13:05:27.520Z,36.47
2022-09-03T13:08:05.542Z,35.64
2022-09-03T13:10:42.100Z,34.72
2022-09-03T13:13:25.686Z,35.55
2022-09-03T13:16:37.369Z,36.64
2022-09-03T13:19:17.388Z,37.97
2022-09-03T13:22:00.127Z,38.29
2022-09-03T13:24:58.665Z,37.75
2022-09-03T13:27:39.022Z,38.26
2022-09-03T13:30:13.285Z,39.70
2022-09-03T13:32:57.478Z,40.01
2022-09-03T13:35:37.938Z,39.76
2022-09-03T13:38:30.424Z,40.23
2022-09-03T13:41:11.089Z,41.63
2022-09-03T13:43:47.353Z,40.59
2022-09-03T13:46:25.955Z,41.00
2022-09-03T13:49:27.322Z,41.71
2022-09-03T13:52:02.007Z,42.54
2022-09-03T13:54:48.990Z,42.68
2022-09-03T13:57:34.666Z,43.49
2022-09-03T14:00:08.716Z,43.82
2022-09-03T14:02:52.822Z,44.04
2022-09-03T14:05:41.071Z,43.78
2022-09-03T14:08:25.169Z,41.41
2022-09-03T14:11:08.730Z,39.73
2022-09-03T14:13:56.110Z,40.69
2022-09-03T14:16:39.335Z,41.74
2022-09-03T14:19:18.233Z,42.55
2022-09-03T14:21:57.010Z,42.24
2022-09-03T14:24:40.513Z,39.21
2022-09-03T14:27:11.318Z,37.64
2022-09-03T14:29:50.934Z,39.01
2022-09-03T14:32:42.320Z,40.51
2022-09-03T14:35:47.011Z,42.18
2022-09-03T14:39:03.011Z,42.07
2022-09-03T14:42:08.910Z,42.06
2022-09-03T14:45:34.501Z,42.12
2022-09-03T14:48:27.823Z,39.31
2022-09-03T14:51:21.755Z,37.43
2022-09-03T14:54:20.932Z,37.35
2022-09-03T14:57:01.316Z,36.37
2022-09-03T15:00:01.900Z,36.04
2022-09-03T15:05:43.631Z,39.52
2022-09-03T15:08:30.629Z,40.59
2022-09-03T15:11:03.329Z,41.28
2022-09-03T15:13:38.741Z,41.42
2022-09-03T15:16:26.634Z,40.55
2022-09-03T15:19:13.905Z,41.18
2022-09-03T15:22:10.134Z,41.77
2022-09-03T15:24:55.389Z,41.48
2022-09-03T15:27:53.711Z,38.08
2022-09-03T15:30:22.653Z,36.03
2022-09-03T15:33:07.046Z,36.84
2022-09-03T15:35:55.907Z,38.49
2022-09-03T15:38:41.795Z,39.65
2022-09-03T15:41:29.804Z,40.34
2022-09-03T15:44:02.887Z,41.54
2022-09-03T15:46:56.852Z,41.38
2022-09-03T15:49:54.361Z,41.68
2022-09-03T15:52:33.722Z,42.63
2022-09-03T15:55:14.315Z,42.80
2022-09-03T15:57:54.665Z,43.54
2022-09-03T16:00:24.136Z,42.54
2022-09-03T16:03:04.138Z,40.57
2022-09-03T16:05:44.708Z,37.81
2022-09-03T16:08:25.948Z,36.49
2022-09-03T16:11:09.168Z,36.20
2022-09-03T16:14:03.695Z,35.11
2022-09-03T16:16:53.603Z,34.76
2022-09-03T16:19:33.149Z,35.65
2022-09-03T16:22:08.080Z,38.15
2022-09-03T16:24:48.555Z,41.09
2022-09-03T16:27:25.494Z,42.84
2022-09-03T16:30:02.952Z,44.00
2022-09-03T16:32:58.141Z,45.09
2022-09-03T16:35:42.867Z,46.20
2022-09-03T16:38:28.845Z,48.23
2022-09-03T16:41:12.022Z,50.19
2022-09-03T16:43:56.270Z,50.60
2022-09-03T16:46:34.226Z,50.05
2022-09-03T16:49:26.975Z,51.24
2022-09-03T16:52:06.817Z,51.56
2022-09-03T16:55:03.185Z,52.53
2022-09-03T16:57:54.445Z,53.11
2022-09-03T17:00:35.975Z,53.83
2022-09-03T17:05:58.069Z,56.11
2022-09-03T17:08:40.054Z,56.79
2022-09-03T17:11:27.274Z,57.65
2022-09-03T17:14:28.490Z,58.53
2022-09-03T17:17:11.365Z,59.30
2022-09-03T17:19:52.176Z,59.73
2022-09-03T17:22:41.819Z,60.21
2022-09-03T17:25:27.074Z,60.80
2022-09-03T17:28:21.415Z,61.02
2022-09-03T17:30:59.711Z,61.32
2022-09-03T17:33:58.950Z,61.70
2022-09-03T17:36:31.636Z,62.35
2022-09-03T17:39:43.049Z,62.83
2022-09-03T17:42:20.504Z,63.37
2022-09-03T17:45:08.698Z,63.64
2022-09-03T17:48:16.028Z,63.98
2022-09-03T17:50:53.167Z,64.30
2022-09-03T17:53:27.058Z,64.69
2022-09-03T17:56:03.763Z,64.96
2022-09-03T17:58:40.144Z,65.17
2022-09-03T18:01:20.468Z,65.34
2022-09-03T18:03:56.868Z,65.71
2022-09-03T18:06:35.366Z,66.21
2022-09-03T18:09:13.627Z,66.61
2022-09-03T18:11:51.059Z,66.98
2022-09-03T18:14:31.993Z,67.34
2022-09-03T18:17:07.924Z,67.86
2022-09-03T18:20:02.889Z,67.95
2022-09-03T18:22:59.692Z,68.22
2022-09-03T18:25:48.495Z,68.53
2022-09-03T18:28:41.037Z,68.79
2022-09-03T18:31:33.168Z,69.07
2022-09-03T18:34:19.380Z,69.32
2022-09-03T18:37:05.729Z,69.74
2022-09-03T18:39:51.459Z,70.36
2022-09-03T18:42:54.741Z,71.10
2022-09-03T18:49:20.900Z,72.56
2022-09-03T18:52:23.913Z,73.31
2022-09-03T18:55:25.766Z,73.75
2022-09-03T18:58:29.334Z,74.16
2022-09-03T19:01:31.021Z,74.73
2022-09-03T19:05:48.527Z,75.70
2022-09-03T19:08:44.691Z,76.32
2022-09-03T19:11:52.234Z,76.56
2022-09-03T19:14:53.619Z,76.83
2022-09-03T19:17:52.009Z,77.29
2022-09-03T19:20:49.063Z,77.47
2022-09-03T19:23:35.797Z,77.51
2022-09-03T19:26:40.253Z,77.65
2022-09-03T19:29:40.620Z,77.98
2022-09-03T19:32:37.736Z,77.95
2022-09-03T19:35:37.036Z,77.89
2022-09-03T19:38:39.267Z,77.99
2022-09-03T19:41:43.753Z,77.78
2022-09-03T19:44:59.916Z,77.88
2022-09-03T19:48:03.877Z,78.03
2022-09-03T19:51:01.027Z,78.15
2022-09-03T19:53:58.937Z,77.89
2022-09-03T19:56:48.209Z,77.92
2022-09-03T19:59:39.899Z,78.17
2022-09-03T20:02:26.715Z,78.11
2022-09-03T20:05:18.591Z,78.03
2022-09-03T20:08:10.586Z,78.00
2022-09-03T20:10:43.163Z,78.20
2022-09-03T20:13:15.649Z,78.35
2022-09-03T20:15:58.654Z,78.23
2022-09-03T20:18:44.188Z,78.29
2022-09-03T20:21:26.122Z,78.28
2022-09-03T20:24:11.484Z,78.09
2022-09-03T20:27:01.049Z,78.12
2022-09-03T20:29:54.727Z,78.35
2022-09-03T20:32:53.234Z,78.27
2022-09-03T20:35:37.491Z,78.07
2022-09-03T20:38:27.622Z,78.06
2022-09-03T20:41:12.095Z,78.08
2022-09-03T20:44:13.032Z,77.89
2022-09-03T20:46:59.510Z,77.60
2022-09-03T20:49:45.022Z,77.69
2022-09-03T20:52:21.213Z,77.54
2022-09-03T20:55:07.202Z,77.54
2022-09-03T20:57:53.030Z,77.53
2022-09-03T21:00:24.555Z,77.30
2022-09-03T21:05:30.969Z,77.11
2022-09-03T21:08:13.473Z,76.95
2022-09-03T21:10:53.830Z,76.84
2022-09-03T21:13:38.448Z,77.16
2022-09-03T21:16:25.313Z,76.86
2022-09-03T21:19:09.148Z,76.67
2022-09-03T21:21:54.235Z,76.63
2022-09-03T21:24:31.270Z,76.73
2022-09-03T21:27:08.485Z,76.58
2022-09-03T21:29:46.591Z,76.75
2022-09-03T21:32:23.172Z,76.49
2022-09-03T21:35:07.151Z,76.54
2022-09-03T21:37:40.880Z,76.65
2022-09-03T21:40:14.345Z,76.76
2022-09-03T21:43:03.933Z,77.00
2022-09-03T21:45:40.543Z,76.92
2022-09-03T21:48:14.883Z,76.79
2022-09-03T21:50:57.440Z,76.77
2022-09-03T21:53:34.089Z,76.50
2022-09-03T21:56:33.052Z,76.59
2022-09-03T21:59:12.497Z,76.55
2022-09-03T22:01:57.349Z,76.44
2022-09-03T22:04:27.681Z,76.26
2022-09-03T22:07:13.953Z,76.19
2022-09-03T22:09:51.454Z,75.96
2022-09-03T22:12:29.771Z,76.18
2022-09-03T22:14:58.425Z,76.04
2022-09-03T22:17:44.016Z,75.79
2022-09-03T22:20:14.604Z,75.74
2022-09-03T22:22:51.371Z,75.51
2022-09-03T22:25:34.242Z,75.64
2022-09-03T22:28:16.471Z,75.62
2022-09-03T22:30:59.466Z,75.62
2022-09-03T22:33:40.839Z,75.39
2022-09-03T22:36:17.853Z,75.25
2022-09-03T22:39:17.926Z,75.45
2022-09-03T22:42:19.667Z,75.34
2022-09-03T22:45:21.593Z,75.24
2022-09-03T22:48:13.577Z,75.06
2022-09-03T22:50:56.566Z,74.54
2022-09-03T22:53:44.260Z,74.14
2022-09-03T22:56:18.925Z,73.83
2022-09-03T22:58:55.855Z,73.77
2022-09-03T23:01:34.773Z,73.53
2022-09-03T23:05:42.302Z,73.22
2022-09-03T23:08:16.816Z,72.87
2022-09-03T23:11:02.721Z,72.57
2022-09-03T23:13:41.998Z,72.39
2022-09-03T23:16:21.820Z,72.15
2022-09-03T23:18:52.309Z,71.98
2022-09-03T23:21:30.643Z,71.88
2022-09-03T23:24:05.354Z,71.78
2022-09-03T23:26:42.071Z,71.37
2022-09-03T23:29:19.518Z,71.22
2022-09-03T23:31:48.111Z,71.02
2022-09-03T23:34:17.305Z,70.69
2022-09-03T23:37:32.952Z,70.60
2022-09-03T23:40:33.216Z,70.11
2022-09-03T23:43:56.075Z,69.86
2022-09-03T23:46:34.642Z,70.05
2022-09-03T23:49:38.926Z,69.53
2022-09-03T23:52:37.459Z,69.29
2022-09-03T23:55:25.187Z,69.20
2022-09-03T23:58:10.643Z,69.03
